createdAt,value
2023-05-09T00:01:31.752Z,99226.75
2023-05-09T00:04:35.507Z,99229.50
2023-05-09T00:07:38.416Z,99219.94
2023-05-09T00:10:41.794Z,99216.50
2023-05-09T00:13:44.608Z,99212.09
2023-05-09T00:16:47.664Z,99210.34
2023-05-09T00:19:51.222Z,99216.69
2023-05-09T00:22:55.188Z,99214.03
2023-05-09T00:25:59.156Z,99212.19
2023-05-09T00:29:01.992Z,99209.66
2023-05-09T00:32:05.041Z,99204.22
2023-05-09T00:35:09.079Z,99202.44
2023-05-09T00:38:12.107Z,99198.13
2023-05-09T00:41:15.591Z,99200.84
2023-05-09T00:44:18.457Z,99192.09
2023-05-09T00:47:23.900Z,99200.09
2023-05-09T00:50:26.553Z,99203.75
2023-05-09T00:53:29.488Z,99198.44
2023-05-09T00:56:32.197Z,99195.88
2023-05-09T00:59:36.105Z,99190.47
2023-05-09T01:02:43.677Z,99190.53
2023-05-09T01:05:58.117Z,99188.91
2023-05-09T01:09:15.578Z,99191.69
2023-05-09T01:12:30.716Z,99195.31
2023-05-09T01:15:39.373Z,99189.12
2023-05-09T01:18:51.376Z,99194.34
2023-05-09T01:21:54.751Z,99194.34
2023-05-09T01:25:10.384Z,99193.53
2023-05-09T01:28:37.021Z,99192.69
2023-05-09T01:31:41.921Z,99170.72
2023-05-09T01:34:45.900Z,99188.47
2023-05-09T01:37:50.595Z,99177.87
2023-05-09T01:40:55.386Z,99184.09
2023-05-09T01:43:59.627Z,99185.16
2023-05-09T01:47:03.288Z,99186.00
2023-05-09T01:50:07.258Z,99181.53
2023-05-09T01:53:11.326Z,99186.03
2023-05-09T01:56:15.207Z,99186.19
2023-05-09T01:59:18.503Z,99186.19
2023-05-09T02:02:21.770Z,99177.28
2023-05-09T02:05:29.159Z,99171.06
2023-05-09T02:08:32.871Z,99172.03
2023-05-09T02:11:36.442Z,99170.25
2023-05-09T02:14:39.043Z,99174.72
2023-05-09T02:17:42.432Z,99167.69
2023-05-09T02:20:45.883Z,99160.56
2023-05-09T02:23:48.676Z,99161.50
2023-05-09T02:26:51.515Z,99161.53
2023-05-09T02:29:57.633Z,99159.72
2023-05-09T02:33:04.041Z,99130.56
2023-05-09T02:36:08.476Z,99161.53
2023-05-09T02:39:11.439Z,99161.59
2023-05-09T02:42:21.972Z,99165.13
2023-05-09T02:45:25.757Z,99161.53
2023-05-09T02:48:28.674Z,99160.69
2023-05-09T02:51:31.636Z,99160.69
2023-05-09T02:54:34.495Z,99154.44
2023-05-09T02:57:37.652Z,99161.59
2023-05-09T03:00:40.375Z,99158.00
2023-05-09T03:03:44.121Z,99158.84
2023-05-09T03:06:47.227Z,99157.84
2023-05-09T03:09:50.333Z,99162.31
2023-05-09T03:12:52.979Z,99167.66
2023-05-09T03:15:55.872Z,99165.84
2023-05-09T03:18:58.426Z,99162.31
2023-05-09T03:22:01.721Z,99167.59
2023-05-09T03:25:06.446Z,99168.41
2023-05-09T03:28:09.473Z,99163.03
2023-05-09T03:31:12.437Z,99161.25
2023-05-09T03:34:15.525Z,99163.09
2023-05-09T03:37:18.812Z,99160.44
2023-05-09T03:40:22.086Z,99156.97
2023-05-09T03:43:25.599Z,99160.50
2023-05-09T03:46:28.502Z,99162.31
2023-05-09T03:49:31.375Z,99170.16
2023-05-09T03:52:34.439Z,99160.41
2023-05-09T03:55:37.546Z,99170.16
2023-05-09T03:58:40.928Z,99171.06
2023-05-09T04:01:43.846Z,99168.38
2023-05-09T04:04:47.445Z,99169.25
2023-05-09T04:07:52.049Z,99171.78
2023-05-09T04:10:55.512Z,99184.22
2023-05-09T04:13:59.666Z,99161.81
2023-05-09T04:17:03.854Z,99170.59
2023-05-09T04:20:08.273Z,99172.22
2023-05-09T04:23:11.340Z,99173.91
2023-05-09T04:26:14.694Z,99174.66
2023-05-09T04:29:18.173Z,99176.28
2023-05-09T04:32:23.375Z,99166.34
2023-05-09T04:35:27.167Z,99185.94
2023-05-09T04:38:30.006Z,99182.59
2023-05-09T04:41:33.234Z,99187.25
2023-05-09T04:44:36.118Z,99180.19
2023-05-09T04:47:39.686Z,99182.94
2023-05-09T04:50:42.329Z,99178.41
2023-05-09T04:53:45.371Z,99177.50
2023-05-09T04:56:50.153Z,99172.84
2023-05-09T04:59:53.644Z,99178.09
2023-05-09T05:02:56.387Z,99175.38
2023-05-09T05:06:00.362Z,99181.88
2023-05-09T05:09:03.717Z,99183.91
2023-05-09T05:12:09.600Z,99178.69
2023-05-09T05:15:13.790Z,99177.69
2023-05-09T05:18:17.884Z,99180.47
2023-05-09T05:21:20.531Z,99179.28
2023-05-09T05:24:24.218Z,99180.03
2023-05-09T05:27:26.976Z,99181.66
2023-05-09T05:30:32.089Z,99188.66
2023-05-09T05:33:36.914Z,99186.63
2023-05-09T05:36:40.398Z,99181.16
2023-05-09T05:39:43.171Z,99194.25
2023-05-09T05:42:46.700Z,99187.69
2023-05-09T05:45:49.684Z,99185.75
2023-05-09T05:48:52.859Z,99190.84
2023-05-09T05:51:55.462Z,99188.78
2023-05-09T05:54:58.503Z,99190.97
2023-05-09T05:58:01.123Z,99186.44
2023-05-09T06:01:04.242Z,99187.69
2023-05-09T06:04:07.565Z,99179.06
2023-05-09T06:07:11.049Z,99186.81
2023-05-09T06:10:15.981Z,99182.94
2023-05-09T06:13:19.700Z,99187.03
2023-05-09T06:16:23.602Z,99181.06
2023-05-09T06:19:26.241Z,99176.41
2023-05-09T06:22:29.103Z,99187.56
2023-05-09T06:25:31.674Z,99182.66
2023-05-09T06:28:34.564Z,99187.53
2023-05-09T06:31:39.028Z,99180.88
2023-05-09T06:34:42.190Z,99187.53
2023-05-09T06:37:46.517Z,99181.69
2023-05-09T06:40:50.554Z,99182.28
2023-05-09T06:43:53.289Z,99174.50
2023-05-09T06:46:56.116Z,99173.38
2023-05-09T06:49:58.595Z,99180.19
2023-05-09T06:53:01.343Z,99176.47
2023-05-09T06:56:04.469Z,99169.25
2023-05-09T06:59:07.876Z,99170.06
2023-05-09T07:02:10.877Z,99178.84
2023-05-09T07:05:14.046Z,99169.44
2023-05-09T07:08:17.121Z,99163.91
2023-05-09T07:11:20.019Z,99158.56
2023-05-09T07:14:22.753Z,99160.06
2023-05-09T07:17:25.793Z,99166.56
2023-05-09T07:20:28.444Z,99160.44
2023-05-09T07:23:31.528Z,99167.59
2023-05-09T07:26:35.713Z,99165.69
2023-05-09T07:29:38.839Z,99169.13
2023-05-09T07:32:41.398Z,99158.22
2023-05-09T07:35:44.308Z,99156.19
2023-05-09T07:38:48.042Z,99136.72
2023-05-09T07:41:50.902Z,99149.59
2023-05-09T07:44:53.524Z,99150.94
2023-05-09T07:47:56.352Z,99154.28
2023-05-09T07:50:59.005Z,99146.31
2023-05-09T07:54:01.828Z,99149.91
2023-05-09T07:57:04.513Z,99145.38
2023-05-09T08:00:08.878Z,99147.19
2023-05-09T08:03:16.156Z,99138.34
2023-05-09T08:06:19.352Z,99140.16
2023-05-09T08:09:22.048Z,99134.53
2023-05-09T08:12:24.982Z,99126.97
2023-05-09T08:15:27.620Z,99121.91
2023-05-09T08:18:30.501Z,99127.00
2023-05-09T08:21:33.213Z,99117.13
2023-05-09T08:24:36.115Z,99126.56
2023-05-09T08:27:38.647Z,99124.22
2023-05-09T08:30:41.630Z,99128.75
2023-05-09T08:33:44.181Z,99117.19
2023-05-09T08:36:47.110Z,99127.31
2023-05-09T08:39:49.621Z,99124.66
2023-05-09T08:42:52.630Z,99125.37
2023-05-09T08:45:58.623Z,99128.53
2023-05-09T08:49:01.626Z,99114.53
2023-05-09T08:52:04.550Z,99126.69
2023-05-09T08:55:07.812Z,99130.34
2023-05-09T08:58:10.466Z,99120.84
2023-05-09T09:01:14.325Z,99121.88
2023-05-09T09:04:17.201Z,99118.13
2023-05-09T09:07:20.248Z,99089.28
2023-05-09T09:10:25.774Z,99109.56
2023-05-09T09:13:29.328Z,99101.97
2023-05-09T09:16:33.154Z,99102.91
2023-05-09T09:19:37.460Z,99088.94
2023-05-09T09:22:42.380Z,99101.87
2023-05-09T09:25:48.409Z,99106.97
2023-05-09T09:28:50.941Z,99106.97
2023-05-09T09:31:55.163Z,99102.41
2023-05-09T09:35:06.977Z,99095.34
2023-05-09T09:38:09.871Z,99094.41
2023-05-09T09:41:12.904Z,99103.72
2023-05-09T09:44:18.068Z,99105.03
2023-05-09T09:47:20.566Z,99092.09
2023-05-09T09:50:24.842Z,99092.84
2023-05-09T09:53:30.386Z,99096.28
2023-05-09T09:56:45.013Z,99102.25
2023-05-09T09:59:58.948Z,99075.62
2023-05-09T10:03:02.103Z,99080.50
2023-05-09T10:06:05.592Z,99080.78
2023-05-09T10:09:08.140Z,99081.88
2023-05-09T10:12:12.187Z,99076.06
2023-05-09T10:15:18.716Z,99066.13
2023-05-09T10:18:29.062Z,99073.66
2023-05-09T10:21:33.104Z,99068.19
2023-05-09T10:24:42.920Z,99068.06
2023-05-09T10:27:46.779Z,99061.41
2023-05-09T10:31:25.095Z,99070.87
2023-05-09T10:34:29.157Z,99080.03
2023-05-09T10:37:33.409Z,99053.56
2023-05-09T10:40:36.393Z,99065.69
2023-05-09T10:43:39.586Z,99066.38
2023-05-09T10:46:42.462Z,99072.69
2023-05-09T10:49:45.635Z,99069.16
2023-05-09T10:53:14.237Z,99061.34
2023-05-09T10:56:33.811Z,99065.31
2023-05-09T10:59:36.368Z,99061.56
2023-05-09T11:02:39.233Z,99057.31
2023-05-09T11:05:42.176Z,99056.81
2023-05-09T11:08:45.047Z,99060.94
2023-05-09T11:11:58.474Z,99053.34
2023-05-09T11:15:08.300Z,99047.34
2023-05-09T11:18:11.003Z,99054.66
2023-05-09T11:21:14.606Z,99050.13
2023-05-09T11:24:17.678Z,99036.75
2023-05-09T11:27:25.692Z,99031.53
2023-05-09T11:30:43.909Z,99037.56
2023-05-09T11:33:54.957Z,99037.22
2023-05-09T11:37:09.759Z,99039.09
2023-05-09T11:40:14.518Z,99031.03
2023-05-09T11:43:18.577Z,99027.94
2023-05-09T11:46:21.494Z,99031.03
2023-05-09T11:49:24.142Z,99027.91
2023-05-09T11:52:27.079Z,99018.91
2023-05-09T11:55:32.765Z,99027.47
2023-05-09T11:58:38.709Z,99021.03
2023-05-09T12:01:41.393Z,99012.38
2023-05-09T12:04:44.422Z,99020.47
2023-05-09T12:07:47.784Z,99019.38
2023-05-09T12:10:50.876Z,99011.19
2023-05-09T12:13:53.434Z,99014.75
2023-05-09T12:16:56.434Z,99006.09
2023-05-09T12:20:00.580Z,98996.22
2023-05-09T12:23:03.629Z,98992.31
2023-05-09T12:26:06.852Z,98977.00
2023-05-09T12:29:09.892Z,98982.22
2023-05-09T12:32:14.342Z,98985.03
2023-05-09T12:35:17.364Z,98980.28
2023-05-09T12:38:23.378Z,98985.38
2023-05-09T12:44:32.685Z,98985.00
2023-05-09T12:47:35.549Z,98976.34
2023-05-09T12:50:38.201Z,98967.88
2023-05-09T12:53:41.668Z,98974.19
2023-05-09T12:56:44.712Z,98978.75
2023-05-09T12:59:47.569Z,98961.53
2023-05-09T13:02:51.021Z,98967.72
2023-05-09T13:05:56.181Z,98960.19
2023-05-09T13:09:01.197Z,98945.78
2023-05-09T13:12:04.339Z,98951.00
2023-05-09T13:15:07.679Z,98944.47
2023-05-09T13:18:11.438Z,98946.47
2023-05-09T13:21:14.080Z,98938.19
2023-05-09T13:24:16.870Z,98934.16
2023-05-09T13:27:19.388Z,98929.31
2023-05-09T13:30:22.408Z,98937.75
2023-05-09T13:33:26.641Z,98938.75
2023-05-09T13:36:29.859Z,98941.44
2023-05-09T13:39:32.475Z,98942.37
2023-05-09T13:42:35.427Z,98936.78
2023-05-09T13:45:37.953Z,98925.25
2023-05-09T13:48:41.873Z,98929.44
2023-05-09T13:51:44.739Z,98930.41
2023-05-09T13:54:47.678Z,98930.22
2023-05-09T13:57:50.323Z,98919.47
2023-05-09T14:00:53.277Z,98921.63
2023-05-09T14:03:56.264Z,98915.72
2023-05-09T14:06:59.956Z,98905.88
2023-05-09T14:13:11.160Z,98901.50
2023-05-09T14:16:14.615Z,98896.75
2023-05-09T14:19:17.415Z,98895.91
2023-05-09T14:22:20.677Z,98891.50
2023-05-09T14:25:23.182Z,98896.09
2023-05-09T14:28:25.959Z,98896.28
2023-05-09T14:31:29.197Z,98892.28
2023-05-09T14:34:31.996Z,98890.16
2023-05-09T14:37:34.478Z,98889.22
2023-05-09T14:40:37.334Z,98890.53
2023-05-09T14:43:39.829Z,98883.50
2023-05-09T14:46:42.926Z,98875.34
2023-05-09T14:49:45.618Z,98869.34
2023-05-09T14:52:49.637Z,98878.50
2023-05-09T14:55:52.293Z,98863.88
2023-05-09T14:58:55.093Z,98867.00
2023-05-09T15:01:57.630Z,98870.47
2023-05-09T15:05:00.668Z,98863.84
2023-05-09T15:08:03.800Z,98857.97
2023-05-09T15:11:07.979Z,98838.75
2023-05-09T15:14:10.515Z,98867.59
2023-05-09T15:17:13.428Z,98861.06
2023-05-09T15:20:19.871Z,98866.75
2023-05-09T15:23:23.063Z,98861.62
2023-05-09T15:26:26.166Z,98861.53
2023-05-09T15:29:28.980Z,98853.34
2023-05-09T15:32:31.659Z,98855.59
2023-05-09T15:35:34.557Z,98838.00
2023-05-09T15:38:37.121Z,98828.91
2023-05-09T15:41:40.102Z,98829.56
2023-05-09T15:44:43.019Z,98828.44
2023-05-09T15:47:45.906Z,98819.44
2023-05-09T15:50:49.021Z,98822.44
2023-05-09T15:53:52.060Z,98826.97
2023-05-09T15:56:54.656Z,98821.69
2023-05-09T15:59:57.554Z,98822.56
2023-05-09T16:03:00.136Z,98815.50
2023-05-09T16:06:03.424Z,98822.88
2023-05-09T16:09:06.844Z,98819.94
2023-05-09T16:12:09.744Z,98811.72
2023-05-09T16:15:12.472Z,98807.62
2023-05-09T16:18:15.351Z,98800.03
2023-05-09T16:21:22.461Z,98799.56
2023-05-09T16:24:25.360Z,98800.53
2023-05-09T16:27:27.873Z,98800.34
2023-05-09T16:30:30.700Z,98802.16
2023-05-09T16:33:33.245Z,98803.81
2023-05-09T16:36:37.680Z,98808.78
2023-05-09T16:39:40.169Z,98805.66
2023-05-09T16:42:43.158Z,98806.59
2023-05-09T16:45:48.011Z,98802.50
2023-05-09T16:48:52.239Z,98799.19
2023-05-09T16:51:54.967Z,98797.78
2023-05-09T16:54:59.398Z,98784.41
2023-05-09T16:58:02.280Z,98791.34
2023-05-09T17:01:05.623Z,98780.16
2023-05-09T17:04:08.503Z,98785.84
2023-05-09T17:07:12.766Z,98783.66
2023-05-09T17:10:15.608Z,98780.19
2023-05-09T17:13:18.984Z,98780.00
2023-05-09T17:16:21.730Z,98778.28
2023-05-09T17:19:24.594Z,98788.78
2023-05-09T17:22:27.868Z,98784.69
2023-05-09T17:25:30.818Z,98781.56
2023-05-09T17:28:33.597Z,98760.63
2023-05-09T17:31:36.432Z,98785.91
2023-05-09T17:34:39.386Z,98781.87
2023-05-09T17:37:42.197Z,98776.97
2023-05-09T17:40:44.969Z,98790.69
2023-05-09T17:43:47.831Z,98763.47
2023-05-09T17:46:50.792Z,98780.53
2023-05-09T17:49:53.706Z,98781.69
2023-05-09T17:52:57.035Z,98771.47
2023-05-09T17:56:01.165Z,98750.47
2023-05-09T17:59:03.740Z,98768.78
2023-05-09T18:02:07.786Z,98773.31
2023-05-09T18:05:11.419Z,98764.25
2023-05-09T18:08:14.168Z,98765.94
2023-05-09T18:11:17.034Z,98758.06
2023-05-09T18:14:19.682Z,98775.59
2023-05-09T18:17:22.593Z,98763.38
2023-05-09T18:20:26.090Z,98772.03
2023-05-09T18:23:29.009Z,98766.37
2023-05-09T18:26:33.719Z,98751.31
2023-05-09T18:29:36.786Z,98778.12
2023-05-09T18:32:39.401Z,98779.22
2023-05-09T18:35:42.714Z,98788.94
2023-05-09T18:38:45.445Z,98781.69
2023-05-09T18:41:48.492Z,98789.25
2023-05-09T18:44:51.208Z,98787.72
2023-05-09T18:47:54.223Z,98790.47
2023-05-09T18:50:57.372Z,98796.00
2023-05-09T18:54:00.279Z,98792.44
2023-05-09T18:57:03.363Z,98790.31
2023-05-09T19:00:07.674Z,98792.94
2023-05-09T19:03:10.302Z,98799.34
2023-05-09T19:06:14.448Z,98796.56
2023-05-09T19:09:17.222Z,98803.31
2023-05-09T19:12:20.062Z,98798.97
2023-05-09T19:15:23.415Z,98801.91
2023-05-09T19:18:26.872Z,98806.66
2023-05-09T19:21:29.857Z,98808.41
2023-05-09T19:24:32.991Z,98805.94
2023-05-09T19:27:35.625Z,98803.47
2023-05-09T19:30:38.809Z,98797.28
2023-05-09T19:33:45.634Z,98797.81
2023-05-09T19:36:49.182Z,98792.78
2023-05-09T19:39:51.983Z,98788.75
2023-05-09T19:42:54.974Z,98776.47
2023-05-09T19:45:58.519Z,98788.19
2023-05-09T19:49:01.894Z,98782.13
2023-05-09T19:52:04.633Z,98785.84
2023-05-09T19:55:07.907Z,98792.34
2023-05-09T19:58:10.813Z,98791.94
2023-05-09T20:01:14.042Z,98791.19
2023-05-09T20:04:21.621Z,98789.34
2023-05-09T20:07:24.376Z,98785.09
2023-05-09T20:10:29.317Z,98791.53
2023-05-09T20:13:31.935Z,98784.38
2023-05-09T20:16:35.167Z,98782.53
2023-05-09T20:19:38.092Z,98790.97
2023-05-09T20:22:41.026Z,98788.66
2023-05-09T20:25:43.767Z,98790.75
2023-05-09T20:28:46.771Z,98768.88
2023-05-09T20:31:49.473Z,98788.19
2023-05-09T20:34:52.221Z,98783.66
2023-05-09T20:37:55.005Z,98786.50
2023-05-09T20:40:58.124Z,98769.53
2023-05-09T20:44:04.090Z,98792.50
2023-05-09T20:47:07.170Z,98775.78
2023-05-09T20:50:10.325Z,98775.13
2023-05-09T20:53:13.172Z,98778.91
2023-05-09T20:56:16.334Z,98773.72
2023-05-09T20:59:19.231Z,98772.16
2023-05-09T21:02:22.012Z,98772.16
2023-05-09T21:05:25.031Z,98772.38
2023-05-09T21:08:27.523Z,98762.81
2023-05-09T21:11:30.336Z,98761.78
2023-05-09T21:14:32.973Z,98766.25
2023-05-09T21:17:35.862Z,98751.06
2023-05-09T21:20:38.589Z,98760.41
2023-05-09T21:23:41.821Z,98757.78
2023-05-09T21:26:44.530Z,98760.53
2023-05-09T21:29:49.528Z,98755.31
2023-05-09T21:32:52.179Z,98757.41
2023-05-09T21:35:55.227Z,98754.88
2023-05-09T21:38:58.007Z,98758.87
2023-05-09T21:42:00.864Z,98763.31
2023-05-09T21:45:03.827Z,98755.53
2023-05-09T21:48:06.898Z,98750.19
2023-05-09T21:51:09.593Z,98763.59
2023-05-09T21:54:12.481Z,98731.97
2023-05-09T21:57:15.046Z,98723.19
2023-05-09T22:00:18.429Z,98766.28
2023-05-09T22:03:21.665Z,98752.84
2023-05-09T22:06:24.298Z,98717.78
2023-05-09T22:09:27.197Z,98747.69
2023-05-09T22:12:29.823Z,98746.13
2023-05-09T22:15:32.679Z,98752.63
2023-05-09T22:18:35.395Z,98744.66
2023-05-09T22:21:38.287Z,98747.59
2023-05-09T22:24:41.795Z,98745.91
2023-05-09T22:27:44.868Z,98753.06
2023-05-09T22:30:47.543Z,98740.62
2023-05-09T22:33:50.673Z,98740.88
2023-05-09T22:36:55.105Z,98750.03
2023-05-09T22:39:58.036Z,98747.44
2023-05-09T22:43:00.889Z,98743.75
2023-05-09T22:46:03.901Z,98738.38
2023-05-09T22:49:06.651Z,98732.19
2023-05-09T22:52:10.420Z,98742.31
2023-05-09T22:55:13.012Z,98733.28
2023-05-09T22:58:16.204Z,98727.28
2023-05-09T23:01:19.125Z,98737.03
2023-05-09T23:04:22.142Z,98736.44
2023-05-09T23:07:24.754Z,98733.63
2023-05-09T23:10:28.086Z,98734.09
2023-05-09T23:13:30.941Z,98734.28
2023-05-09T23:16:33.745Z,98737.19
2023-05-09T23:19:37.303Z,98712.97
2023-05-09T23:22:40.254Z,98722.81
2023-05-09T23:25:42.895Z,98729.00
2023-05-09T23:28:46.040Z,98708.13
2023-05-09T23:31:48.673Z,98726.38
2023-05-09T23:34:52.122Z,98721.94
2023-05-09T23:37:54.699Z,98727.19
2023-05-09T23:40:58.586Z,98725.28
2023-05-09T23:44:03.328Z,98709.66
2023-05-09T23:47:06.437Z,98722.09
2023-05-09T23:50:09.061Z,98697.84
2023-05-09T23:53:12.043Z,98711.72
2023-05-09T23:56:14.997Z,98706.53
2023-05-09T23:59:18.071Z,98704.97
